»·PEaware :: AAL554 KPDX-KPHX

AAL554 :: KPDX-KPHX

FLIGHT INFORMATION

Flight Status: Arrived
Operator:
American Airlines
More flights by this operator :: More flights under this callsign
Pilot: Shawn G. (7208)
Aircraft: AIRBUS A320
(A320)
More flights by this aircraft type
Origin: KPDX Portland Intl
United States
Destination: KPHX Phoenix Sky Harbor Intl
United States
More flights between these airports :: More routes between these airports
Route: WHAMY4 KOATA NEERO WINEN CORKR TENTS BRUSR1
File this flight plan on PilotEdge
Remarks:
Altitude:
(Current/Filed)
35,000ft
Speed:
(Current/Filed)
464kts
Departed: 13-Jul-18 04:42 PM
Arrived: 13-Jul-18 06:58 PM
Distance/Time
Traveled:
877nm/2:16
Distance/Time
To Go:
Arrived

Flight Plot

Page will automatically refresh every two minutes.

Flight plan parsing failed; only flown route is shown


Map Options




Map Legend


Flown Route
Filed Route
Departure Airport
Arrival Airport
Navaid (VOR, NDB)
Fix

Horizontal Profiles

Position Reports

Time Latitude Longitude Heading Altitude Ground
Speed
13-Jul-18 16:21 45.588636 -122.596933 5 38ft 0kts
13-Jul-18 16:22 45.588636 -122.596933 5 38ft 0kts
13-Jul-18 16:23 45.588636 -122.596933 5 38ft 0kts
13-Jul-18 16:24 45.588636 -122.596933 5 38ft 0kts
13-Jul-18 16:25 45.588636 -122.596933 5 38ft 0kts
13-Jul-18 16:26 45.588636 -122.596933 5 38ft 0kts
13-Jul-18 16:27 45.588636 -122.596933 5 38ft 0kts
13-Jul-18 16:28 45.588636 -122.596933 5 38ft 0kts
13-Jul-18 16:29 45.588636 -122.596933 5 38ft 0kts
13-Jul-18 16:30 45.588636 -122.596933 5 38ft 0kts
13-Jul-18 16:31 45.588636 -122.596933 5 38ft 0kts
13-Jul-18 16:32 45.588636 -122.596933 5 38ft 0kts
13-Jul-18 16:33 45.588636 -122.596933 5 38ft 0kts
13-Jul-18 16:34 45.588531 -122.596949 5 38ft 2kts
13-Jul-18 16:35 45.588055 -122.597380 69 38ft 2kts
13-Jul-18 16:36 45.588103 -122.598017 119 38ft 0kts
13-Jul-18 16:37 45.588103 -122.598017 119 38ft 0kts
13-Jul-18 16:38 45.587794 -122.597240 119 38ft 10kts
13-Jul-18 16:39 45.586235 -122.593676 129 38ft 10kts
13-Jul-18 16:40 45.584193 -122.590121 124 38ft 13kts
13-Jul-18 16:41 45.582424 -122.585606 118 38ft 12kts
13-Jul-18 16:42 45.580709 -122.584103 264 38ft 10kts
13-Jul-18 16:43 45.586282 -122.598571 298 38ft 146kts
13-Jul-18 16:44 45.610012 -122.655982 300 2509ft 174kts
13-Jul-18 16:45 45.639812 -122.727005 299 4214ft 247kts
13-Jul-18 16:46 45.671129 -122.821043 268 6774ft 277kts
13-Jul-18 16:47 45.636089 -122.917781 205 9604ft 300kts
13-Jul-18 16:48 45.551852 -122.894195 146 11476ft 355kts
13-Jul-18 16:49 45.502118 -122.767618 114 13225ft 388kts
13-Jul-18 16:50 45.458980 -122.627106 114 15493ft 393kts
13-Jul-18 16:51 45.414536 -122.484822 115 17416ft 400kts
13-Jul-18 16:52 45.369178 -122.340572 115 19095ft 409kts
13-Jul-18 16:53 45.323434 -122.195918 116 20615ft 416kts
13-Jul-18 16:54 45.275661 -122.045706 116 22018ft 423kts
13-Jul-18 16:55 45.212391 -121.905506 130 23326ft 427kts
13-Jul-18 16:56 45.137703 -121.775692 130 24511ft 433kts
13-Jul-18 16:57 45.060715 -121.642466 130 25519ft 441kts
13-Jul-18 16:58 44.982626 -121.507970 131 26508ft 447kts
13-Jul-18 16:59 44.903379 -121.372133 131 27412ft 452kts
13-Jul-18 17:00 44.826220 -121.240488 132 28215ft 457kts
13-Jul-18 17:01 44.746256 -121.104615 132 29258ft 455kts
13-Jul-18 17:02 44.665638 -120.968537 132 30320ft 452kts
13-Jul-18 17:03 44.585450 -120.833729 132 31351ft 449kts
13-Jul-18 17:04 44.505534 -120.699900 132 32285ft 447kts
13-Jul-18 17:05 44.426115 -120.567583 132 33146ft 445kts
13-Jul-18 17:06 44.346517 -120.435609 132 33931ft 443kts
13-Jul-18 17:07 44.268664 -120.307089 133 34643ft 442kts
13-Jul-18 17:08 44.190496 -120.178638 133 35180ft 440kts
13-Jul-18 17:09 44.111654 -120.049663 133 35187ft 439kts
13-Jul-18 17:10 44.032718 -119.921119 133 35188ft 439kts
13-Jul-18 17:11 43.953493 -119.792664 133 35179ft 439kts
13-Jul-18 17:12 43.875384 -119.666589 133 35175ft 439kts
13-Jul-18 17:13 43.796598 -119.539986 133 35187ft 439kts
13-Jul-18 17:14 43.716044 -119.411155 133 35212ft 450kts
13-Jul-18 17:15 43.635521 -119.282869 134 35210ft 450kts
13-Jul-18 17:16 43.553556 -119.152888 134 35210ft 449kts
13-Jul-18 17:17 43.473508 -119.026475 134 35213ft 437kts
13-Jul-18 17:18 43.379694 -118.934390 158 35210ft 430kts
13-Jul-18 17:19 43.270351 -118.869076 158 35210ft 429kts
13-Jul-18 17:20 43.161161 -118.804078 158 35205ft 429kts
13-Jul-18 17:21 43.051619 -118.739177 158 35212ft 437kts
13-Jul-18 17:22 42.939069 -118.672753 158 35209ft 445kts
13-Jul-18 17:23 42.827634 -118.607212 158 35209ft 445kts
13-Jul-18 17:24 42.714354 -118.540859 158 35181ft 442kts
13-Jul-18 17:25 42.601895 -118.475257 158 35181ft 441kts
13-Jul-18 17:26 42.489471 -118.409948 158 35182ft 441kts
13-Jul-18 17:27 42.380933 -118.347127 159 35179ft 441kts
13-Jul-18 17:28 42.272020 -118.284334 159 35148ft 444kts
13-Jul-18 17:29 42.157497 -118.218564 159 35150ft 450kts
13-Jul-18 17:30 42.042163 -118.152602 159 35185ft 455kts
13-Jul-18 17:31 41.926229 -118.086518 159 35181ft 451kts
13-Jul-18 17:32 41.814571 -118.017075 147 35186ft 456kts
13-Jul-18 17:33 41.720640 -117.902693 139 35175ft 458kts
13-Jul-18 17:34 41.628024 -117.786396 139 35164ft 458kts
13-Jul-18 17:35 41.535200 -117.670386 139 35166ft 458kts
13-Jul-18 17:36 41.442256 -117.554707 139 35178ft 459kts
13-Jul-18 17:37 41.349105 -117.439244 139 35186ft 460kts
13-Jul-18 17:38 41.255983 -117.324286 140 35190ft 460kts
13-Jul-18 17:39 41.162538 -117.209403 139 35186ft 460kts
13-Jul-18 17:40 41.068306 -117.094025 139 35186ft 462kts
13-Jul-18 17:41 40.974261 -116.979337 139 35193ft 462kts
13-Jul-18 17:42 40.881728 -116.866941 139 35187ft 462kts
13-Jul-18 17:43 40.788901 -116.754667 139 35216ft 462kts
13-Jul-18 17:44 40.694132 -116.640484 139 35213ft 462kts
13-Jul-18 17:45 40.599422 -116.526825 139 35210ft 462kts
13-Jul-18 17:46 40.505111 -116.414101 139 35206ft 462kts
13-Jul-18 17:47 40.411788 -116.302993 140 35207ft 462kts
13-Jul-18 17:48 40.316546 -116.190057 140 35207ft 464kts
13-Jul-18 17:49 40.221104 -116.077324 140 35204ft 465kts
13-Jul-18 17:50 40.125549 -115.964894 140 35312ft 465kts
13-Jul-18 17:51 40.029708 -115.852588 140 35207ft 464kts
13-Jul-18 17:52 39.934325 -115.741247 140 35423ft 464kts
13-Jul-18 17:53 39.840774 -115.632474 140 35395ft 463kts
13-Jul-18 17:54 39.744599 -115.521077 140 35395ft 463kts
13-Jul-18 17:55 39.648668 -115.410394 140 35394ft 463kts
13-Jul-18 17:56 39.553882 -115.301450 141 35369ft 463kts
13-Jul-18 17:57 39.457652 -115.191269 141 35369ft 463kts
13-Jul-18 17:58 39.361257 -115.081329 140 35369ft 465kts
13-Jul-18 17:59 39.264456 -114.971345 140 35368ft 465kts
13-Jul-18 18:00 39.167837 -114.861983 140 35368ft 464kts
13-Jul-18 18:01 39.070771 -114.752534 140 35368ft 465kts
13-Jul-18 18:02 38.973915 -114.643725 140 35368ft 464kts
13-Jul-18 18:03 38.877920 -114.536304 140 35368ft 464kts
13-Jul-18 18:04 38.781790 -114.429128 140 35368ft 464kts
13-Jul-18 18:05 38.685455 -114.322100 141 35369ft 464kts
13-Jul-18 18:06 38.589066 -114.215460 141 35368ft 464kts
13-Jul-18 18:07 38.491798 -114.108219 141 35313ft 464kts
13-Jul-18 18:08 38.394309 -114.001127 141 35314ft 464kts
13-Jul-18 18:09 38.296686 -113.894282 141 35313ft 464kts
13-Jul-18 18:10 38.199114 -113.787887 141 35314ft 464kts
13-Jul-18 18:11 38.101249 -113.681562 141 35314ft 464kts
13-Jul-18 18:12 38.003519 -113.575770 141 35313ft 463kts
13-Jul-18 18:13 37.919937 -113.492379 153 35373ft 461kts
13-Jul-18 18:14 37.811738 -113.425882 155 35367ft 458kts
13-Jul-18 18:15 37.698881 -113.357272 155 35368ft 455kts
13-Jul-18 18:16 37.588314 -113.290305 156 35368ft 455kts
13-Jul-18 18:17 37.474732 -113.221735 156 35365ft 455kts
13-Jul-18 18:18 37.361022 -113.153322 156 35364ft 455kts
13-Jul-18 18:19 37.247532 -113.085232 156 35365ft 455kts
13-Jul-18 18:20 37.133807 -113.017302 156 35308ft 455kts
13-Jul-18 18:21 37.019988 -112.949525 156 35314ft 455kts
13-Jul-18 18:22 36.911519 -112.885135 156 35316ft 455kts
13-Jul-18 18:23 36.803389 -112.821142 156 35318ft 455kts
13-Jul-18 18:24 36.689134 -112.753741 156 35317ft 455kts
13-Jul-18 18:25 36.575148 -112.686720 156 35323ft 455kts
13-Jul-18 18:26 36.461310 -112.620007 156 35341ft 455kts
13-Jul-18 18:27 36.357817 -112.559543 156 35434ft 454kts
13-Jul-18 18:28 36.244477 -112.493534 156 35423ft 455kts
13-Jul-18 18:29 36.132744 -112.428672 156 35420ft 454kts
13-Jul-18 18:30 36.010948 -112.406818 185 35411ft 451kts
13-Jul-18 18:31 35.888490 -112.417607 185 35401ft 454kts
13-Jul-18 18:32 35.764277 -112.428385 185 35434ft 455kts
13-Jul-18 18:33 35.638892 -112.439268 185 34483ft 454kts
13-Jul-18 18:34 35.512210 -112.450051 183 30646ft 458kts
13-Jul-18 18:35 35.383944 -112.430681 173 29400ft 475kts
13-Jul-18 18:36 35.253310 -112.405030 173 29398ft 479kts
13-Jul-18 18:37 35.123178 -112.378161 172 29135ft 477kts
13-Jul-18 18:38 34.993367 -112.349900 172 28651ft 481kts
13-Jul-18 18:39 34.877447 -112.324830 172 28028ft 485kts
13-Jul-18 18:40 34.749742 -112.296770 171 24817ft 488kts
13-Jul-18 18:41 34.619378 -112.268086 170 22749ft 467kts
13-Jul-18 18:42 34.495207 -112.240890 170 21879ft 436kts
13-Jul-18 18:43 34.383767 -112.213907 169 21019ft 388kts
13-Jul-18 18:44 34.282351 -112.187681 169 19406ft 370kts
13-Jul-18 18:45 34.182834 -112.162017 168 17488ft 363kts
13-Jul-18 18:46 34.088242 -112.137364 165 15108ft 329kts
13-Jul-18 18:47 34.003492 -112.103374 162 13594ft 318kts
13-Jul-18 18:48 33.921202 -112.069967 162 12094ft 308kts
13-Jul-18 18:49 33.843693 -112.038526 161 10696ft 299kts
13-Jul-18 18:50 33.766679 -112.007312 161 9347ft 290kts
13-Jul-18 18:51 33.692123 -111.977180 160 8842ft 279kts
13-Jul-18 18:52 33.623289 -111.948940 152 7932ft 261kts
13-Jul-18 18:53 33.574226 -111.887825 120 6594ft 257kts
13-Jul-18 18:54 33.533222 -111.813395 127 4281ft 273kts
13-Jul-18 18:55 33.465560 -111.797605 209 3034ft 260kts
13-Jul-18 18:56 33.441163 -111.869849 266 3022ft 233kts
13-Jul-18 18:57 33.440849 -111.939365 268 2033ft 178kts
13-Jul-18 18:58 33.440840 -111.988482 269 1246ft 138kts
13-Jul-18 18:59 33.440390 -112.013527 199 1143ft 8kts
13-Jul-18 19:00 33.439788 -112.013791 227 1143ft 10kts
13-Jul-18 19:01 33.439009 -112.012813 89 1143ft 10kts
13-Jul-18 19:02 33.439014 -112.007912 89 1143ft 15kts
13-Jul-18 19:03 33.439039 -112.002697 88 1143ft 17kts
13-Jul-18 19:04 33.438454 -111.998273 180 1143ft 10kts
13-Jul-18 19:05 33.437582 -111.998630 267 1143ft 3kts
13-Jul-18 19:06 33.437574 -111.998803 266 1143ft 0kts
13-Jul-18 19:07 33.437574 -111.998803 266 1143ft 0kts
13-Jul-18 19:08 33.437574 -111.998803 266 1143ft 0kts

Navigation Log

Ident Type
Flight plan parsing failed, navigation log unavailable